createdAt,value
2019-04-20T00:00:46.078Z,8.00
2019-04-20T00:01:40.962Z,0.00
2019-04-20T00:02:39.888Z,0.00
2019-04-20T00:03:42.328Z,0.00
2019-04-20T00:04:41.139Z,0.00
2019-04-20T00:05:39.446Z,0.00
2019-04-20T00:06:46.270Z,0.00
2019-04-20T00:07:41.751Z,0.00
2019-04-20T00:08:42.355Z,0.00
2019-04-20T00:09:41.696Z,0.00
2019-04-20T00:10:47.386Z,0.00
2019-04-20T00:11:50.206Z,0.00
2019-04-20T00:12:53.390Z,0.00
2019-04-20T00:13:47.727Z,0.00
2019-04-20T00:14:41.300Z,0.00
2019-04-20T00:15:39.326Z,0.00
2019-04-20T00:16:39.923Z,0.00
2019-04-20T00:17:47.630Z,0.00
2019-04-20T00:18:46.590Z,0.00
2019-04-20T00:19:45.621Z,0.00
2019-04-20T00:20:40.724Z,0.00
2019-04-20T00:21:47.362Z,0.00
2019-04-20T00:22:46.926Z,0.00
2019-04-20T00:23:43.843Z,0.00
2019-04-20T00:24:41.073Z,0.00
2019-04-20T00:25:53.195Z,0.00
2019-04-20T00:27:59.610Z,0.00
2019-04-20T00:29:00.175Z,0.00
2019-04-20T00:29:54.238Z,0.00
2019-04-20T00:30:58.744Z,0.00
2019-04-20T00:31:55.533Z,0.00
2019-04-20T00:32:53.228Z,0.00
2019-04-20T00:33:52.838Z,0.00
2019-04-20T00:34:43.639Z,0.00
2019-04-20T00:35:40.229Z,0.00
2019-04-20T00:36:39.304Z,0.00
2019-04-20T00:37:40.214Z,0.00
2019-04-20T00:38:45.291Z,0.00
2019-04-20T00:39:40.570Z,0.00
2019-04-20T00:40:39.283Z,0.00
2019-04-20T00:41:44.159Z,0.00
2019-04-20T00:42:46.822Z,0.00
2019-04-20T00:43:42.054Z,0.00
2019-04-20T00:44:41.317Z,0.00
2019-04-20T00:45:46.757Z,0.00
2019-04-20T00:46:53.482Z,0.00
2019-04-20T00:47:48.969Z,0.00
2019-04-20T00:48:48.386Z,0.00
2019-04-20T00:49:55.098Z,0.00
2019-04-20T00:50:57.215Z,0.00
2019-04-20T00:52:05.170Z,0.00
2019-04-20T00:52:54.263Z,0.00
2019-04-20T00:53:44.947Z,0.00
2019-04-20T00:54:41.141Z,0.00
2019-04-20T00:55:39.877Z,0.00
2019-04-20T00:56:39.297Z,0.00
2019-04-20T00:57:47.687Z,0.00
2019-04-20T00:58:54.749Z,0.00
2019-04-20T01:00:03.293Z,0.00
2019-04-20T01:01:03.733Z,0.00
2019-04-20T01:02:02.267Z,0.00
2019-04-20T01:02:50.767Z,0.00
2019-04-20T01:03:52.685Z,0.00
2019-04-20T01:04:58.035Z,0.00
2019-04-20T01:06:02.238Z,0.00
2019-04-20T01:06:54.158Z,0.00
2019-04-20T01:07:46.803Z,0.00
2019-04-20T01:08:40.202Z,0.00
2019-04-20T01:09:39.183Z,0.00
2019-04-20T01:10:44.793Z,0.00
2019-04-20T01:11:43.242Z,0.00
2019-04-20T01:12:41.006Z,0.00
2019-04-20T01:13:46.912Z,0.00
2019-04-20T01:14:46.628Z,0.00
2019-04-20T01:15:48.842Z,0.00
2019-04-20T01:16:47.074Z,0.00
2019-04-20T01:17:41.595Z,0.00
2019-04-20T01:18:38.621Z,0.00
2019-04-20T01:19:38.591Z,0.00
2019-04-20T01:20:38.931Z,0.00
2019-04-20T01:21:38.564Z,0.00
2019-04-20T01:22:45.488Z,0.00
2019-04-20T01:23:46.117Z,0.00
2019-04-20T01:24:43.799Z,0.00
2019-04-20T01:25:43.406Z,0.00
2019-04-20T01:26:46.874Z,0.00
2019-04-20T01:27:59.098Z,0.00
2019-04-20T01:28:57.713Z,0.00
2019-04-20T01:29:47.807Z,0.00
2019-04-20T01:30:44.442Z,0.00
2019-04-20T01:31:55.741Z,0.00
2019-04-20T01:32:57.631Z,0.00
2019-04-20T01:33:50.636Z,0.00
2019-04-20T01:34:52.505Z,0.00
2019-04-20T01:35:53.570Z,0.00
2019-04-20T01:36:55.666Z,0.00
2019-04-20T01:37:57.419Z,0.00
2019-04-20T01:38:52.273Z,0.00
2019-04-20T01:39:45.197Z,0.00
2019-04-20T01:40:40.215Z,0.00
2019-04-20T01:41:39.305Z,0.00
2019-04-20T01:42:38.393Z,0.00
2019-04-20T01:43:39.505Z,0.00
2019-04-20T01:44:43.399Z,0.00
2019-04-20T01:45:42.405Z,0.00
2019-04-20T01:46:39.113Z,0.00
2019-04-20T01:47:45.595Z,0.00
2019-04-20T01:48:41.473Z,0.00
2019-04-20T01:49:39.054Z,0.00
2019-04-20T01:50:50.827Z,0.00
2019-04-20T01:51:48.266Z,0.00
2019-04-20T01:52:50.714Z,0.00
2019-04-20T01:53:50.376Z,0.00
2019-04-20T01:55:02.694Z,0.00
2019-04-20T01:55:50.672Z,0.00
2019-04-20T01:56:53.181Z,0.00
2019-04-20T01:58:00.592Z,0.00
2019-04-20T01:58:58.212Z,0.00
2019-04-20T01:59:52.001Z,0.00
2019-04-20T02:00:42.117Z,0.00
2019-04-20T02:01:42.383Z,0.00
2019-04-20T02:02:45.917Z,0.00
2019-04-20T02:03:43.966Z,0.00
2019-04-20T02:04:45.191Z,0.00
2019-04-20T02:05:40.721Z,0.00
2019-04-20T02:06:43.385Z,0.00
2019-04-20T02:07:44.575Z,0.00
2019-04-20T02:08:40.083Z,0.00
2019-04-20T02:09:45.790Z,0.00
2019-04-20T02:10:45.994Z,0.00
2019-04-20T02:11:42.686Z,0.00
2019-04-20T02:12:40.860Z,0.00
2019-04-20T02:13:44.434Z,0.00
2019-04-20T02:14:46.303Z,0.00
2019-04-20T02:15:46.435Z,0.00
2019-04-20T02:16:44.004Z,0.00
2019-04-20T02:17:46.127Z,0.00
2019-04-20T02:18:57.995Z,0.00
2019-04-20T02:19:59.768Z,0.00
2019-04-20T02:20:59.651Z,0.00
2019-04-20T02:21:55.462Z,0.00
2019-04-20T02:22:55.323Z,0.00
2019-04-20T02:23:47.985Z,0.00
2019-04-20T02:24:38.863Z,0.00
2019-04-20T02:25:37.848Z,0.00
2019-04-20T02:26:38.870Z,0.00
2019-04-20T02:27:45.447Z,0.00
2019-04-20T02:29:05.675Z,0.00
2019-04-20T02:29:58.506Z,0.00
2019-04-20T02:31:15.955Z,0.00
2019-04-20T02:32:19.824Z,0.00
2019-04-20T02:33:18.338Z,0.00
2019-04-20T02:35:14.139Z,0.00
2019-04-20T02:36:27.620Z,0.00
2019-04-20T02:37:14.033Z,0.00
2019-04-20T02:40:13.058Z,0.00
2019-04-20T02:41:11.459Z,0.00
2019-04-20T02:43:28.435Z,0.00
2019-04-20T02:44:14.337Z,0.00
2019-04-20T02:45:18.749Z,0.00
2019-04-20T02:46:06.489Z,0.00
2019-04-20T02:47:14.091Z,0.00
2019-04-20T02:49:10.130Z,0.00
2019-04-20T02:50:07.000Z,0.00
2019-04-20T02:52:06.735Z,0.00
2019-04-20T02:55:12.498Z,0.00
2019-04-20T02:56:06.588Z,0.00
2019-04-20T02:57:10.302Z,0.00
2019-04-20T02:58:05.192Z,0.00
2019-04-20T02:59:30.817Z,0.00
2019-04-20T03:00:08.963Z,0.00
2019-04-20T03:00:52.674Z,0.00
2019-04-20T03:01:53.491Z,0.00
2019-04-20T03:02:47.367Z,0.00
2019-04-20T03:03:39.063Z,0.00
2019-04-20T03:04:42.451Z,0.00
2019-04-20T03:05:41.173Z,0.00
2019-04-20T03:06:53.825Z,0.00
2019-04-20T03:07:55.263Z,0.00
2019-04-20T03:08:56.594Z,0.00
2019-04-20T03:09:54.250Z,0.00
2019-04-20T03:11:03.640Z,0.00
2019-04-20T03:12:13.670Z,0.00
2019-04-20T03:12:50.730Z,0.00
2019-04-20T03:13:54.591Z,0.00
2019-04-20T03:14:48.748Z,0.00
2019-04-20T03:15:55.030Z,0.00
2019-04-20T03:16:51.820Z,0.00
2019-04-20T03:17:51.255Z,0.00
2019-04-20T03:18:50.521Z,0.00
2019-04-20T03:19:48.723Z,0.00
2019-04-20T03:20:53.685Z,0.00
2019-04-20T03:21:58.296Z,0.00
2019-04-20T03:23:13.111Z,0.00
2019-04-20T03:24:00.936Z,0.00
2019-04-20T03:24:54.032Z,0.00
2019-04-20T03:25:55.907Z,0.00
2019-04-20T03:26:50.565Z,0.00
2019-04-20T03:27:46.185Z,0.00
2019-04-20T03:28:51.516Z,0.00
2019-04-20T03:29:52.350Z,0.00
2019-04-20T03:31:37.100Z,4.00
2019-04-20T03:33:17.866Z,0.00
2019-04-20T03:34:13.003Z,4.00
2019-04-20T03:35:17.439Z,4.00
2019-04-20T03:35:58.560Z,8.00
2019-04-20T03:37:25.113Z,4.00
2019-04-20T03:37:55.597Z,8.00
2019-04-20T03:38:47.942Z,8.00
2019-04-20T03:39:47.676Z,12.00
2019-04-20T03:40:46.488Z,12.00
2019-04-20T03:41:38.468Z,12.00
2019-04-20T03:42:33.012Z,12.00
2019-04-20T03:43:31.255Z,16.00
2019-04-20T03:44:34.019Z,20.00
2019-04-20T03:45:37.446Z,20.00
2019-04-20T03:46:42.003Z,24.00
2019-04-20T03:47:42.497Z,28.00
2019-04-20T03:48:50.765Z,32.00
2019-04-20T03:49:54.797Z,36.00
2019-04-20T03:50:53.265Z,40.00
2019-04-20T03:51:53.415Z,44.00
2019-04-20T03:52:57.751Z,52.00
2019-04-20T03:53:50.287Z,56.00
2019-04-20T03:54:43.499Z,60.00
2019-04-20T03:55:51.610Z,68.00
2019-04-20T03:56:49.213Z,76.00
2019-04-20T03:57:51.671Z,84.00
2019-04-20T03:58:47.233Z,96.00
2019-04-20T03:59:53.313Z,108.00
2019-04-20T04:00:51.733Z,128.00
2019-04-20T04:03:01.533Z,152.00
2019-04-20T04:03:58.790Z,168.00
2019-04-20T04:04:53.623Z,180.00
2019-04-20T04:05:46.898Z,192.00
2019-04-20T04:06:41.638Z,208.00
2019-04-20T04:07:38.687Z,220.00
2019-04-20T04:08:38.057Z,240.00
2019-04-20T04:09:39.792Z,256.00
2019-04-20T04:10:48.515Z,276.00
2019-04-20T04:11:48.527Z,292.00
2019-04-20T04:12:37.126Z,312.00
2019-04-20T04:13:31.452Z,328.00
2019-04-20T04:14:30.912Z,344.00
2019-04-20T04:15:31.690Z,368.00
2019-04-20T04:16:38.383Z,388.00
2019-04-20T04:17:38.374Z,408.00
2019-04-20T04:18:38.624Z,432.00
2019-04-20T04:19:36.656Z,452.00
2019-04-20T04:20:38.778Z,476.00
2019-04-20T04:21:49.794Z,496.00
2019-04-20T04:22:50.021Z,516.00
2019-04-20T04:23:51.467Z,540.00
2019-04-20T04:24:40.648Z,560.00
2019-04-20T04:25:50.079Z,580.00
2019-04-20T04:26:47.436Z,604.00
2019-04-20T04:27:52.209Z,628.00
2019-04-20T04:28:47.491Z,648.00
2019-04-20T04:29:52.379Z,668.00
2019-04-20T04:30:47.579Z,692.00
2019-04-20T04:32:00.361Z,716.00
2019-04-20T04:33:12.442Z,736.00
2019-04-20T04:33:55.551Z,756.00
2019-04-20T04:34:48.952Z,776.00
2019-04-20T04:35:48.181Z,800.00
2019-04-20T04:36:54.008Z,824.00
2019-04-20T04:37:48.526Z,844.00
2019-04-20T04:38:53.493Z,868.00
2019-04-20T04:39:56.324Z,888.00
2019-04-20T04:41:01.980Z,908.00
2019-04-20T04:42:03.663Z,932.00
2019-04-20T04:42:52.308Z,948.00
2019-04-20T04:43:51.080Z,972.00
2019-04-20T04:44:43.277Z,992.00
2019-04-20T04:45:33.390Z,1012.00
2019-04-20T04:46:34.833Z,1032.00
2019-04-20T04:47:32.672Z,1048.00
2019-04-20T04:48:35.594Z,1068.00
2019-04-20T04:49:36.537Z,1092.00
2019-04-20T04:50:32.946Z,1108.00
2019-04-20T04:51:42.691Z,1128.00
2019-04-20T04:52:44.722Z,1148.00
2019-04-20T04:53:44.241Z,1168.00
2019-04-20T04:54:41.020Z,1180.00
2019-04-20T04:55:39.434Z,1200.00
2019-04-20T04:56:32.014Z,1220.00
2019-04-20T04:57:30.534Z,1240.00
2019-04-20T04:58:31.826Z,1256.00
2019-04-20T04:59:31.620Z,1276.00
2019-04-20T05:00:33.150Z,1292.00
2019-04-20T05:01:33.641Z,1312.00
2019-04-20T05:02:40.432Z,1328.00
2019-04-20T05:03:54.008Z,1348.00
2019-04-20T05:04:58.417Z,1364.00
2019-04-20T05:05:49.371Z,1384.00
2019-04-20T05:06:43.443Z,1404.00
2019-04-20T05:07:46.730Z,1420.00
2019-04-20T05:08:41.317Z,1436.00
2019-04-20T05:09:31.792Z,1460.00
2019-04-20T05:10:30.774Z,1472.00
2019-04-20T05:11:30.283Z,1492.00
2019-04-20T05:12:33.411Z,1508.00
2019-04-20T05:13:37.080Z,1532.00
2019-04-20T05:14:43.252Z,1556.00
2019-04-20T05:15:46.209Z,1576.00
2019-04-20T05:16:51.280Z,1596.00
2019-04-20T05:17:48.364Z,1620.00
2019-04-20T05:19:11.587Z,1640.00
2019-04-20T05:19:55.263Z,1664.00
2019-04-20T05:20:54.648Z,1684.00
2019-04-20T05:21:58.653Z,1712.00
2019-04-20T05:22:50.981Z,1728.00
2019-04-20T05:23:41.407Z,1752.00
2019-04-20T05:24:55.265Z,1772.00
2019-04-20T05:26:57.928Z,1816.00
2019-04-20T05:27:51.216Z,1836.00
2019-04-20T05:28:43.908Z,1860.00
2019-04-20T05:29:34.541Z,1880.00
2019-04-20T05:30:33.630Z,1908.00
2019-04-20T05:31:42.352Z,1932.00
2019-04-20T05:32:44.090Z,1956.00
2019-04-20T05:33:59.666Z,1980.00
2019-04-20T05:34:58.396Z,2004.00
2019-04-20T05:35:52.001Z,2028.00
2019-04-20T05:36:49.334Z,2048.00
2019-04-20T05:38:08.087Z,2064.00
2019-04-20T05:38:58.223Z,2080.00
2019-04-20T05:39:50.451Z,2100.00
2019-04-20T05:40:51.431Z,2116.00
2019-04-20T05:41:48.614Z,2152.00
2019-04-20T05:42:54.485Z,2208.00
2019-04-20T05:43:49.692Z,2236.00
2019-04-20T05:44:54.194Z,2272.00
2019-04-20T05:45:45.077Z,2312.00
2019-04-20T05:46:47.682Z,2352.00
2019-04-20T05:47:48.434Z,2420.00
2019-04-20T05:48:50.950Z,2488.00
2019-04-20T05:49:46.805Z,2600.00
2019-04-20T05:50:52.137Z,2776.00
2019-04-20T05:51:49.841Z,3008.00
2019-04-20T05:52:56.160Z,3516.00
2019-04-20T05:53:50.400Z,3868.00
2019-04-20T05:54:51.230Z,3480.00
2019-04-20T05:55:49.250Z,2964.00
2019-04-20T05:56:53.883Z,2712.00
2019-04-20T05:57:56.717Z,2688.00
2019-04-20T05:58:50.818Z,2708.00
2019-04-20T05:59:55.997Z,2724.00
2019-04-20T06:00:55.471Z,2740.00
2019-04-20T06:02:02.165Z,2768.00
2019-04-20T06:02:52.396Z,2784.00
2019-04-20T06:03:48.807Z,2828.00
2019-04-20T06:05:02.250Z,2864.00
2019-04-20T06:05:57.869Z,2904.00
2019-04-20T06:06:52.989Z,2936.00
2019-04-20T06:07:48.870Z,2976.00
2019-04-20T06:08:59.916Z,3016.00
2019-04-20T06:09:55.910Z,3040.00
2019-04-20T06:10:50.799Z,3072.00
2019-04-20T06:12:02.971Z,3076.00
2019-04-20T06:12:51.747Z,3112.00
2019-04-20T06:13:44.296Z,3148.00
2019-04-20T06:14:46.801Z,3188.00
2019-04-20T06:15:46.727Z,3216.00
2019-04-20T06:16:56.843Z,3248.00
2019-04-20T06:17:49.336Z,3280.00
2019-04-20T06:18:40.225Z,3284.00
2019-04-20T06:19:54.621Z,3244.00
2019-04-20T06:20:52.561Z,3296.00
2019-04-20T06:21:57.479Z,3324.00
2019-04-20T06:22:52.562Z,3364.00
2019-04-20T06:24:53.142Z,3456.00
2019-04-20T06:26:11.107Z,3484.00
2019-04-20T06:26:54.045Z,3516.00
2019-04-20T06:27:52.748Z,3528.00
2019-04-20T06:28:48.997Z,3520.00
2019-04-20T06:29:45.569Z,3532.00
2019-04-20T06:30:45.556Z,3580.00
2019-04-20T06:31:51.815Z,3624.00
2019-04-20T06:32:52.325Z,3632.00
2019-04-20T06:34:19.854Z,3644.00
2019-04-20T06:34:51.873Z,3660.00
2019-04-20T06:36:10.270Z,3700.00
2019-04-20T06:36:49.837Z,3672.00
2019-04-20T06:38:03.050Z,3728.00
2019-04-20T06:39:02.227Z,3756.00
2019-04-20T06:39:55.977Z,3808.00
2019-04-20T06:40:59.397Z,3804.00
2019-04-20T06:42:08.128Z,3788.00
2019-04-20T06:42:53.476Z,3860.00
2019-04-20T06:43:55.749Z,3920.00
2019-04-20T06:44:53.605Z,3956.00
2019-04-20T06:45:56.790Z,3924.00
2019-04-20T06:46:58.766Z,3932.00
2019-04-20T06:47:52.119Z,3960.00
2019-04-20T06:48:51.705Z,3984.00
2019-04-20T06:49:48.663Z,4144.00
2019-04-20T06:50:52.493Z,4168.00
2019-04-20T06:51:52.961Z,4204.00
2019-04-20T06:52:45.284Z,4240.00
2019-04-20T06:53:47.517Z,4268.00
2019-04-20T06:54:48.562Z,4120.00
2019-04-20T06:55:57.383Z,4080.00
2019-04-20T06:56:54.057Z,4108.00
2019-04-20T06:57:56.296Z,4140.00
2019-04-20T06:58:49.859Z,4168.00
2019-04-20T06:59:47.390Z,3900.00
2019-04-20T07:00:53.446Z,4184.00
2019-04-20T07:01:56.373Z,4220.00
2019-04-20T07:02:49.008Z,4252.00
2019-04-20T07:04:00.650Z,4276.00
2019-04-20T07:04:58.102Z,4308.00
2019-04-20T07:05:54.673Z,4320.00
2019-04-20T07:07:00.506Z,4272.00
2019-04-20T07:07:54.717Z,4280.00
2019-04-20T07:10:05.171Z,4196.00
2019-04-20T07:11:10.958Z,4436.00
2019-04-20T07:11:50.494Z,4448.00
2019-04-20T07:12:46.995Z,4484.00
2019-04-20T07:13:41.276Z,4508.00
2019-04-20T07:14:43.955Z,4544.00
2019-04-20T07:15:48.709Z,4576.00
2019-04-20T07:16:53.081Z,4600.00
2019-04-20T07:18:50.670Z,4640.00
2019-04-20T07:19:44.480Z,4660.00
2019-04-20T07:20:55.625Z,4668.00
2019-04-20T07:22:02.274Z,4652.00
2019-04-20T07:22:52.438Z,4660.00
2019-04-20T07:23:55.847Z,4676.00
2019-04-20T07:25:05.409Z,4672.00
2019-04-20T07:26:04.914Z,4668.00
2019-04-20T07:26:49.284Z,4692.00
2019-04-20T07:27:53.560Z,4724.00
2019-04-20T07:28:53.023Z,4720.00
2019-04-20T07:29:51.918Z,4732.00
2019-04-20T07:30:52.050Z,4768.00
2019-04-20T07:31:48.481Z,4768.00
2019-04-20T07:33:04.442Z,4844.00
2019-04-20T07:33:52.118Z,4864.00
2019-04-20T07:34:51.534Z,4888.00
2019-04-20T07:35:50.719Z,4908.00
2019-04-20T07:37:04.801Z,4924.00
2019-04-20T07:38:54.234Z,4960.00
2019-04-20T07:39:55.821Z,4952.00
2019-04-20T07:40:50.631Z,4936.00
2019-04-20T07:41:57.251Z,4928.00
2019-04-20T07:42:52.424Z,5028.00
2019-04-20T07:43:59.598Z,5096.00
2019-04-20T07:44:55.461Z,5120.00
2019-04-20T07:45:53.798Z,5160.00
2019-04-20T07:47:02.844Z,5008.00
2019-04-20T07:48:01.656Z,5236.00
2019-04-20T07:48:50.397Z,4932.00
2019-04-20T07:49:48.329Z,5124.00
2019-04-20T07:50:40.819Z,5124.00
2019-04-20T07:51:36.611Z,5156.00
2019-04-20T07:52:38.460Z,5172.00
2019-04-20T07:53:51.354Z,5168.00
2019-04-20T07:55:12.367Z,5292.00
2019-04-20T07:56:05.021Z,5304.00
2019-04-20T07:56:47.857Z,5304.00
2019-04-20T07:58:04.864Z,5312.00
2019-04-20T07:58:38.749Z,5400.00
2019-04-20T07:59:46.874Z,5440.00
2019-04-20T08:01:04.212Z,5452.00
2019-04-20T08:02:01.219Z,5492.00
2019-04-20T08:02:57.296Z,5556.00
2019-04-20T08:03:50.391Z,5604.00
2019-04-20T08:04:47.623Z,5616.00
2019-04-20T08:05:41.873Z,5588.00
2019-04-20T08:06:37.897Z,5648.00
2019-04-20T08:07:42.664Z,5636.00
2019-04-20T08:08:43.999Z,5612.00
2019-04-20T08:09:39.369Z,5612.00
2019-04-20T08:10:38.387Z,5628.00
2019-04-20T08:12:55.607Z,5616.00
2019-04-20T08:13:54.960Z,5636.00
2019-04-20T08:14:56.961Z,5668.00
2019-04-20T08:17:08.265Z,5716.00
2019-04-20T08:17:56.935Z,5736.00
2019-04-20T08:18:51.344Z,5756.00
2019-04-20T08:19:46.766Z,5776.00
2019-04-20T08:20:52.801Z,5756.00
2019-04-20T08:21:48.091Z,5784.00
2019-04-20T08:22:56.953Z,5804.00
2019-04-20T08:23:52.154Z,5776.00
2019-04-20T08:24:44.971Z,5780.00
2019-04-20T08:25:44.604Z,5812.00
2019-04-20T08:26:36.002Z,5820.00
2019-04-20T08:27:29.725Z,5856.00
2019-04-20T08:28:36.082Z,5904.00
2019-04-20T08:29:42.799Z,5828.00
2019-04-20T08:30:42.285Z,5892.00
2019-04-20T08:31:40.635Z,5988.00
2019-04-20T08:32:48.393Z,6036.00
2019-04-20T08:33:55.102Z,6100.00
2019-04-20T08:34:50.699Z,6208.00
2019-04-20T08:35:52.446Z,6272.00
2019-04-20T08:36:53.451Z,6364.00
2019-04-20T08:38:02.261Z,6396.00
2019-04-20T08:39:58.426Z,6644.00
2019-04-20T08:40:47.861Z,6688.00
2019-04-20T08:42:14.552Z,6676.00
2019-04-20T08:43:00.568Z,6736.00
2019-04-20T08:44:18.766Z,6848.00
2019-04-20T08:45:51.124Z,7000.00
2019-04-20T08:46:59.678Z,7028.00
2019-04-20T08:47:51.407Z,7108.00
2019-04-20T08:48:50.864Z,7108.00
2019-04-20T08:49:52.249Z,7144.00
2019-04-20T08:50:54.485Z,7140.00
2019-04-20T08:51:59.990Z,7040.00
2019-04-20T08:53:50.733Z,7008.00
2019-04-20T08:54:41.452Z,6876.00
2019-04-20T08:55:45.321Z,6604.00
2019-04-20T08:56:36.009Z,6660.00
2019-04-20T08:57:29.279Z,6484.00
2019-04-20T08:58:27.684Z,6628.00
2019-04-20T08:59:28.918Z,6632.00
2019-04-20T09:00:33.292Z,6612.00
2019-04-20T09:01:32.712Z,6980.00
2019-04-20T09:02:28.658Z,7196.00
2019-04-20T09:03:33.715Z,7392.00
2019-04-20T09:04:38.369Z,7416.00
2019-04-20T09:05:40.921Z,7768.00
2019-04-20T09:06:41.496Z,7928.00
2019-04-20T09:07:32.020Z,7848.00
2019-04-20T09:08:42.302Z,7944.00
2019-04-20T09:09:49.555Z,8076.00
2019-04-20T09:10:49.177Z,8044.00
2019-04-20T09:11:49.560Z,8052.00
2019-04-20T09:12:45.379Z,8044.00
2019-04-20T09:13:38.601Z,8072.00
2019-04-20T09:14:29.940Z,8112.00
2019-04-20T09:15:27.900Z,8120.00
2019-04-20T09:16:38.072Z,8016.00
2019-04-20T09:17:35.647Z,8080.00
2019-04-20T09:18:38.883Z,8148.00
2019-04-20T09:19:36.809Z,8164.00
2019-04-20T09:20:36.226Z,8156.00
2019-04-20T09:21:39.138Z,8192.00
2019-04-20T09:22:40.526Z,8244.00
2019-04-20T09:23:40.908Z,8220.00
2019-04-20T09:24:52.763Z,8484.00
2019-04-20T09:26:48.959Z,8552.00
2019-04-20T09:27:34.826Z,9004.00
2019-04-20T09:28:38.447Z,9328.00
2019-04-20T09:29:37.157Z,9704.00
2019-04-20T09:30:39.455Z,10024.00
2019-04-20T09:31:39.260Z,10280.00
2019-04-20T09:32:43.953Z,10780.00
2019-04-20T09:33:48.697Z,11004.00
2019-04-20T09:34:46.567Z,11256.00
2019-04-20T09:35:48.637Z,11588.00
2019-04-20T09:36:42.289Z,11524.00
2019-04-20T09:37:47.374Z,11716.00
2019-04-20T09:38:40.864Z,11712.00
2019-04-20T09:39:36.171Z,11800.00
2019-04-20T09:40:44.918Z,11968.00
2019-04-20T09:41:47.151Z,12144.00
2019-04-20T09:42:28.186Z,12264.00
2019-04-20T09:43:28.076Z,12376.00
2019-04-20T09:44:31.426Z,12312.00
2019-04-20T09:45:37.084Z,12256.00
2019-04-20T09:46:30.936Z,12264.00
2019-04-20T09:47:36.624Z,12348.00
2019-04-20T09:48:34.715Z,12256.00
2019-04-20T09:49:40.247Z,12192.00
2019-04-20T09:50:47.513Z,12076.00
2019-04-20T09:51:46.246Z,11776.00
2019-04-20T09:52:46.522Z,11788.00
2019-04-20T09:53:39.015Z,11528.00
2019-04-20T09:54:48.245Z,11736.00
2019-04-20T09:55:46.850Z,12032.00
2019-04-20T09:56:39.622Z,11872.00
2019-04-20T09:57:43.902Z,11868.00
2019-04-20T09:58:52.094Z,12204.00
2019-04-20T09:59:42.965Z,12884.00
2019-04-20T10:00:43.755Z,13696.00
2019-04-20T10:01:35.120Z,14512.00
2019-04-20T10:02:31.510Z,15496.00
2019-04-20T10:03:29.057Z,16384.00
2019-04-20T10:04:26.958Z,18272.00
2019-04-20T10:05:27.405Z,24608.00
2019-04-20T10:06:30.701Z,36384.00
2019-04-20T10:07:32.529Z,44672.00
2019-04-20T10:08:29.263Z,47232.00
2019-04-20T10:09:32.608Z,46144.00
2019-04-20T10:10:35.068Z,49152.00
2019-04-20T10:11:27.854Z,52224.00
2019-04-20T10:12:26.852Z,50592.00
2019-04-20T10:13:27.186Z,54208.00
2019-04-20T10:14:27.006Z,73408.00
2019-04-20T10:15:29.388Z,83264.00
2019-04-20T10:16:26.803Z,80256.00
2019-04-20T10:17:29.863Z,87104.00
2019-04-20T10:18:27.971Z,90784.00
2019-04-20T10:19:32.458Z,92544.00
2019-04-20T10:20:31.840Z,94688.00
2019-04-20T10:21:27.786Z,93984.00
2019-04-20T10:22:26.886Z,96608.00
2019-04-20T10:23:26.899Z,98464.00
2019-04-20T10:24:26.716Z,100672.00
2019-04-20T10:25:26.741Z,100224.00
2019-04-20T10:26:27.034Z,100288.00
2019-04-20T10:27:26.696Z,100704.00
2019-04-20T10:28:27.677Z,100192.00
2019-04-20T10:29:27.904Z,101056.00
2019-04-20T10:30:26.671Z,100320.00
2019-04-20T10:31:26.639Z,100896.00
2019-04-20T10:32:34.242Z,105248.00
2019-04-20T10:33:27.893Z,105600.00
2019-04-20T10:34:26.602Z,104480.00
2019-04-20T10:35:27.636Z,99136.00
2019-04-20T10:36:27.786Z,98464.00
2019-04-20T10:37:27.237Z,102496.00
2019-04-20T10:38:27.600Z,108448.00
2019-04-20T10:39:26.682Z,108224.00
2019-04-20T10:40:37.851Z,100992.00
2019-04-20T10:41:37.265Z,91904.00
2019-04-20T10:42:28.100Z,91008.00
2019-04-20T10:43:26.523Z,94240.00
2019-04-20T10:44:27.167Z,93728.00
2019-04-20T10:45:26.839Z,96224.00
2019-04-20T10:46:26.911Z,96608.00
2019-04-20T10:47:27.309Z,88032.00
2019-04-20T10:48:26.942Z,84960.00
2019-04-20T10:49:27.144Z,89056.00
2019-04-20T10:50:27.162Z,104096.00
2019-04-20T10:51:26.459Z,115424.00
2019-04-20T10:52:27.745Z,120864.00
2019-04-20T10:53:26.418Z,126272.00
2019-04-20T10:54:26.901Z,123104.00
2019-04-20T10:55:27.263Z,126752.00
2019-04-20T10:56:27.521Z,137600.00
2019-04-20T10:57:27.794Z,137664.00
2019-04-20T10:58:27.440Z,138560.00
2019-04-20T10:59:27.647Z,137632.00
2019-04-20T11:00:26.364Z,141408.00
2019-04-20T11:01:27.457Z,141888.00
2019-04-20T11:02:27.680Z,140832.00
2019-04-20T11:03:26.740Z,149088.00
2019-04-20T11:04:26.405Z,142976.00
2019-04-20T11:05:26.572Z,144192.00
2019-04-20T11:06:26.877Z,138688.00
2019-04-20T11:07:26.511Z,141664.00
2019-04-20T11:08:26.547Z,134624.00
2019-04-20T11:09:26.880Z,135584.00
2019-04-20T11:10:29.316Z,120384.00
2019-04-20T11:11:30.057Z,117792.00
2019-04-20T11:12:26.350Z,107776.00
2019-04-20T11:13:27.591Z,101856.00
2019-04-20T11:14:31.396Z,103296.00
2019-04-20T11:15:28.238Z,102752.00
2019-04-20T11:16:26.465Z,89056.00
2019-04-20T11:17:29.775Z,108800.00
2019-04-20T11:18:27.365Z,109920.00
2019-04-20T11:19:27.403Z,110496.00
2019-04-20T11:20:27.364Z,102400.00
2019-04-20T11:21:26.306Z,100928.00
2019-04-20T11:22:26.307Z,103904.00
2019-04-20T11:23:26.614Z,111936.00
2019-04-20T11:24:26.155Z,115616.00
2019-04-20T11:25:26.255Z,110976.00
2019-04-20T11:26:26.477Z,109344.00
2019-04-20T11:27:26.104Z,107968.00
2019-04-20T11:28:26.264Z,105120.00
2019-04-20T11:29:26.449Z,108224.00
2019-04-20T11:30:26.114Z,117152.00
2019-04-20T11:31:35.610Z,112032.00
2019-04-20T11:32:28.284Z,117152.00
2019-04-20T11:33:26.042Z,115456.00
2019-04-20T11:34:31.567Z,108960.00
2019-04-20T11:35:33.876Z,112192.00
2019-04-20T11:36:27.439Z,122624.00
2019-04-20T11:37:26.827Z,113152.00
2019-04-20T11:38:26.191Z,102912.00
2019-04-20T11:39:27.134Z,109536.00
2019-04-20T11:40:26.671Z,121792.00
2019-04-20T11:41:29.135Z,121824.00
2019-04-20T11:42:27.727Z,121184.00
2019-04-20T11:43:26.091Z,123520.00
2019-04-20T11:44:29.415Z,119424.00
2019-04-20T11:45:26.746Z,116832.00
2019-04-20T11:46:26.965Z,126528.00
2019-04-20T11:47:25.942Z,122208.00
2019-04-20T11:48:25.918Z,96416.00
2019-04-20T11:49:25.916Z,124576.00
2019-04-20T11:50:27.397Z,132256.00
2019-04-20T11:51:25.890Z,130112.00
2019-04-20T11:52:27.022Z,127008.00
2019-04-20T11:53:26.900Z,122752.00
2019-04-20T11:54:26.384Z,125344.00
2019-04-20T11:55:26.618Z,122400.00
2019-04-20T11:56:31.475Z,116992.00
2019-04-20T11:57:27.184Z,108416.00
2019-04-20T11:58:26.159Z,110976.00
2019-04-20T11:59:27.261Z,110400.00
2019-04-20T12:00:25.842Z,111392.00
2019-04-20T12:01:30.200Z,120032.00
2019-04-20T12:02:32.154Z,113312.00
2019-04-20T12:03:35.425Z,113152.00
2019-04-20T12:04:40.400Z,113536.00
2019-04-20T12:05:35.621Z,116384.00
2019-04-20T12:06:26.775Z,113376.00
2019-04-20T12:07:26.807Z,109568.00
2019-04-20T12:08:27.069Z,110016.00
2019-04-20T12:09:26.280Z,106336.00
2019-04-20T12:10:27.791Z,107264.00
2019-04-20T12:11:33.960Z,103328.00
2019-04-20T12:12:35.220Z,104640.00
2019-04-20T12:13:26.937Z,114016.00
2019-04-20T12:14:25.713Z,110208.00
2019-04-20T12:15:26.603Z,105568.00
2019-04-20T12:16:25.800Z,103168.00
2019-04-20T12:17:26.004Z,92992.00
2019-04-20T12:18:25.671Z,84224.00
2019-04-20T12:19:26.915Z,61568.00
2019-04-20T12:20:26.912Z,65664.00
2019-04-20T12:21:26.493Z,85312.00
2019-04-20T12:22:26.216Z,75296.00
2019-04-20T12:23:26.483Z,73472.00
2019-04-20T12:24:25.637Z,69184.00
2019-04-20T12:25:25.991Z,60576.00
2019-04-20T12:26:26.880Z,49600.00
2019-04-20T12:27:26.884Z,42976.00
2019-04-20T12:28:25.613Z,34528.00
2019-04-20T12:29:25.874Z,30880.00
2019-04-20T12:30:25.910Z,26176.00
2019-04-20T12:31:27.569Z,16896.00
2019-04-20T12:32:27.112Z,15360.00
2019-04-20T12:33:26.548Z,12620.00
2019-04-20T12:34:26.471Z,12384.00
2019-04-20T12:35:26.487Z,12300.00
2019-04-20T12:36:26.029Z,12236.00
2019-04-20T12:37:25.527Z,13280.00
2019-04-20T12:38:25.513Z,16448.00
2019-04-20T12:39:26.913Z,22496.00
2019-04-20T12:40:25.898Z,24800.00